LVPOB SADF-SABE
Flight info
| Callsign | LVPOB |
|---|---|
| Flight time | 0h -21m |
| Altitude | 5000 |
| Route | VANAR |
| Aircraft | C750/M-SBDE3FGHRWXY/S |
Departure
| Time | 2026-04-15 12:55 |
|---|---|
| Airport | San Fernando Airport (SADF) |
Arrival
| Time | 2026-04-15 12:34 |
|---|---|
| Airport | Aeroparque Jorge Newbery (SABE) |
| Time | Latitude | Longitude | Altitude | Speed | Heading |
|---|---|---|---|---|---|
| 2026-04-15 12:34 | -34.45716 | -58.58799 | 25 ft | 0 kts | 333° |
| 2026-04-15 12:51 | -34.45707 | -58.58805 | 25 ft | 2 kts | 333° |
| 2026-04-15 12:52 | -34.45695 | -58.58822 | 24 ft | 4 kts | 276° |
| 2026-04-15 12:52 | -34.45715 | -58.58871 | 24 ft | 11 kts | 242° |
| 2026-04-15 12:52 | -34.45761 | -58.58980 | 24 ft | 18 kts | 242° |
| 2026-04-15 12:52 | -34.45820 | -58.59117 | 24 ft | 18 kts | 242° |
| 2026-04-15 12:53 | -34.45874 | -58.59244 | 24 ft | 16 kts | 243° |
| 2026-04-15 12:53 | -34.45924 | -58.59359 | 24 ft | 15 kts | 242° |
| 2026-04-15 12:53 | -34.45969 | -58.59463 | 25 ft | 13 kts | 242° |
| 2026-04-15 12:53 | -34.46010 | -58.59558 | 24 ft | 11 kts | 242° |
| 2026-04-15 12:54 | -34.46031 | -58.59624 | 26 ft | 7 kts | 270° |
| 2026-04-15 12:54 | -34.46011 | -58.59669 | 25 ft | 6 kts | 313° |
| 2026-04-15 12:54 | -34.45975 | -58.59699 | 24 ft | 3 kts | 12° |
| 2026-04-15 12:54 | -34.45953 | -58.59673 | 24 ft | 13 kts | 45° |
| 2026-04-15 12:55 | -34.45649 | -58.59314 | 26 ft | 115 kts | 44° |
| 2026-04-15 12:55 | -34.44945 | -58.58486 | 246 ft | 152 kts | 47° |
| 2026-04-15 12:55 | -34.44143 | -58.57585 | 856 ft | 160 kts | 45° |
| 2026-04-15 12:55 | -34.43264 | -58.56671 | 1343 ft | 178 kts | 44° |
| 2026-04-15 12:56 | -34.42233 | -58.55611 | 1553 ft | 212 kts | 44° |
| 2026-04-15 12:56 | -34.41078 | -58.54404 | 2338 ft | 218 kts | 44° |
| 2026-04-15 12:56 | -34.39913 | -58.53177 | 3010 ft | 228 kts | 44° |
| 2026-04-15 12:56 | -34.38589 | -58.52096 | 2957 ft | 235 kts | 21° |
| 2026-04-15 12:57 | -34.36965 | -58.52186 | 2954 ft | 241 kts | 341° |
| 2026-04-15 12:57 | -34.35737 | -58.53543 | 2962 ft | 246 kts | 300° |
| 2026-04-15 12:57 | -34.35482 | -58.55561 | 2980 ft | 248 kts | 258° |
| 2026-04-15 12:57 | -34.36295 | -58.57313 | 2964 ft | 243 kts | 219° |
| 2026-04-15 12:58 | -34.37759 | -58.58236 | 2980 ft | 237 kts | 189° |
| 2026-04-15 12:58 | -34.39382 | -58.58504 | 3016 ft | 236 kts | 182° |
| 2026-04-15 12:58 | -34.41015 | -58.58722 | 3005 ft | 237 kts | 182° |
| 2026-04-15 12:58 | -34.42646 | -58.58960 | 2996 ft | 235 kts | 183° |
| 2026-04-15 12:59 | -34.45807 | -58.58779 | 2948 ft | 224 kts | 149° |
| 2026-04-15 12:59 | -34.46981 | -58.57609 | 2847 ft | 215 kts | 127° |
| 2026-04-15 12:59 | -34.47813 | -58.56156 | 2618 ft | 203 kts | 121° |
| 2026-04-15 13:00 | -34.48580 | -58.54776 | 2340 ft | 192 kts | 121° |
| 2026-04-15 13:00 | -34.49307 | -58.53474 | 2088 ft | 182 kts | 121° |
| 2026-04-15 13:00 | -34.50004 | -58.52227 | 1841 ft | 174 kts | 121° |
| 2026-04-15 13:00 | -34.50631 | -58.51108 | 1619 ft | 148 kts | 121° |
| 2026-04-15 13:01 | -34.51163 | -58.50144 | 1467 ft | 130 kts | 122° |
| 2026-04-15 13:01 | -34.51664 | -58.49245 | 1313 ft | 131 kts | 121° |
| 2026-04-15 13:01 | -34.52180 | -58.48319 | 1142 ft | 136 kts | 122° |
| 2026-04-15 13:01 | -34.52715 | -58.47358 | 973 ft | 138 kts | 122° |
| 2026-04-15 13:02 | -34.53248 | -58.46400 | 806 ft | 135 kts | 124° |
| 2026-04-15 13:02 | -34.53771 | -58.45460 | 641 ft | 133 kts | 123° |
| 2026-04-15 13:02 | -34.54292 | -58.44518 | 433 ft | 137 kts | 122° |
| 2026-04-15 13:02 | -34.54822 | -58.43568 | 274 ft | 134 kts | 122° |
| 2026-04-15 13:03 | -34.55332 | -58.42636 | 107 ft | 129 kts | 122° |
| 2026-04-15 13:03 | -34.55815 | -58.41781 | 24 ft | 111 kts | 122° |
| 2026-04-15 13:03 | -34.56073 | -58.41313 | 22 ft | 24 kts | 124° |
| 2026-04-15 13:03 | -34.56150 | -58.41176 | 23 ft | 15 kts | 124° |
| 2026-04-15 13:04 | -34.56196 | -58.41099 | 23 ft | 7 kts | 152° |
| 2026-04-15 13:04 | -34.56242 | -58.41122 | 22 ft | 10 kts | 214° |
| 2026-04-15 13:04 | -34.56302 | -58.41171 | 22 ft | 8 kts | 214° |
| 2026-04-15 13:04 | -34.56336 | -58.41196 | 22 ft | 4 kts | 199° |
| 2026-04-15 13:05 | -34.56359 | -58.41181 | 22 ft | 5 kts | 124° |
| 2026-04-15 13:05 | -34.56386 | -58.41132 | 23 ft | 8 kts | 123° |
| 2026-04-15 13:05 | -34.56423 | -58.41068 | 22 ft | 9 kts | 124° |
| 2026-04-15 13:05 | -34.56455 | -58.41010 | 22 ft | 7 kts | 123° |
| 2026-04-15 13:06 | -34.56481 | -58.40964 | 22 ft | 7 kts | 124° |
| 2026-04-15 13:06 | -34.56486 | -58.40947 | 24 ft | 0 kts | 76° |
| 2026-04-15 13:06 | -34.56478 | -58.40940 | 22 ft | 2 kts | 26° |
| 2026-04-15 13:06 | -34.56465 | -58.40930 | 24 ft | 2 kts | 34° |
| 2026-04-15 13:07 | -34.56461 | -58.40927 | 23 ft | 0 kts | 35° |